Time;durP1;ratioP1;P1;durP2;ratioP2;P2;SDS_P1;SDS_P2;PMS_P1;PMS_P2;Temp;Humidity;BMP_temperature;BMP_pressure;BME280_temperature;BME280_humidity;BME280_pressure;Samples;Min_cycle;Max_cycle;Signal;HPM_P1;HPM_P2
2022/05/04 00:00:49;;;;;;;13.23;7.07;;;;;;;13.59;100.00;99058.94;5016538;28;20225;-80
2022/05/04 00:03:22;;;;;;;9.33;6.60;;;;;;;13.38;100.00;99056.13;5050520;28;20193;-80
2022/05/04 00:05:52;;;;;;;12.83;7.33;;;;;;;13.39;100.00;99045.38;5070629;28;20203;-80
2022/05/04 00:08:22;;;;;;;7.77;6.83;;;;;;;13.40;100.00;99047.06;5093828;28;20195;-80
2022/05/04 00:10:50;;;;;;;9.73;6.77;;;;;;;13.17;100.00;99039.97;5073427;28;20204;-80
2022/05/04 00:13:25;;;;;;;9.43;7.47;;;;;;;13.24;100.00;99053.69;5013638;28;20222;-80
2022/05/04 00:15:54;;;;;;;10.03;6.97;;;;;;;13.06;100.00;99054.09;5008033;28;20222;-79
2022/05/04 00:18:24;;;;;;;9.20;7.33;;;;;;;13.08;100.00;99061.94;5008305;28;20229;-80
2022/05/04 00:20:53;;;;;;;12.93;7.93;;;;;;;13.10;100.00;99052.03;5012471;28;20258;-80
2022/05/04 00:23:23;;;;;;;13.63;8.40;;;;;;;12.90;100.00;99050.88;5009126;28;20198;-80
2022/05/04 00:25:52;;;;;;;10.67;7.90;;;;;;;12.98;100.00;99050.31;5006618;28;20282;-80
2022/05/04 00:28:23;;;;;;;9.40;7.63;;;;;;;12.96;100.00;99053.09;5005500;28;20199;-80
2022/05/04 00:30:53;;;;;;;8.43;7.13;;;;;;;13.09;100.00;99043.22;5013643;28;20202;-80
2022/05/04 00:33:22;;;;;;;10.37;7.63;;;;;;;12.98;100.00;99043.19;5006264;28;20233;-79
2022/05/04 00:35:52;;;;;;;9.27;7.83;;;;;;;13.25;100.00;99042.94;5012374;28;20210;-80
2022/05/04 00:38:20;;;;;;;9.27;7.60;;;;;;;12.77;100.00;99050.97;5014260;28;20403;-80
2022/05/04 00:40:49;;;;;;;10.83;7.77;;;;;;;13.10;100.00;99054.69;5007768;28;20613;-80
2022/05/04 00:43:26;;;;;;;9.27;7.93;;;;;;;12.93;100.00;99053.31;4991471;28;20281;-80
2022/05/04 00:45:55;;;;;;;9.80;7.77;;;;;;;13.09;100.00;99048.53;4973754;28;20226;-80
2022/05/04 00:48:24;;;;;;;9.60;7.77;;;;;;;13.08;100.00;99051.31;4966830;28;20196;-80
2022/05/04 00:50:54;;;;;;;9.77;7.70;;;;;;;13.13;100.00;99050.00;4968165;28;20207;-80
2022/05/04 00:53:24;;;;;;;10.13;7.97;;;;;;;13.20;100.00;99050.41;4968744;28;20224;-80
2022/05/04 00:55:56;;;;;;;10.97;8.10;;;;;;;13.22;100.00;99044.97;4973588;28;20696;-80
2022/05/04 01:01:20;;;;;;;12.17;8.00;;;;;;;13.20;100.00;99039.75;4984994;28;20232;-81
2022/05/04 01:03:50;;;;;;;10.00;7.70;;;;;;;13.28;100.00;99047.16;5037189;28;20213;-80
2022/05/04 01:06:20;;;;;;;10.20;7.47;;;;;;;13.34;100.00;99050.22;5109568;28;20207;-80
2022/05/04 01:08:51;;;;;;;10.77;7.60;;;;;;;13.31;100.00;99052.22;5112288;28;20202;-80
2022/05/04 01:11:24;;;;;;;10.53;8.67;;;;;;;13.35;100.00;99043.06;5109779;28;20199;-80
2022/05/04 01:14:03;;;;;;;10.93;7.57;;;;;;;13.25;100.00;99053.56;5110909;28;20717;-80
2022/05/04 01:16:33;;;;;;;9.87;7.37;;;;;;;13.31;100.00;99053.09;5114778;28;20203;-79
2022/05/04 01:19:01;;;;;;;11.60;8.87;;;;;;;13.29;100.00;99043.53;5079055;28;20198;-80
2022/05/04 01:21:31;;;;;;;10.30;7.80;;;;;;;13.03;100.00;99046.38;5110803;27;20234;-80
2022/05/04 01:24:07;;;;;;;12.67;8.73;;;;;;;13.07;100.00;99045.16;5108753;28;20187;-79
2022/05/04 01:26:39;;;;;;;11.43;8.70;;;;;;;12.99;100.00;99049.34;5114441;28;20694;-80
2022/05/04 01:29:08;;;;;;;11.97;8.57;;;;;;;12.86;100.00;99044.97;5116137;27;20198;-80
2022/05/04 01:31:38;;;;;;;12.77;8.77;;;;;;;12.73;100.00;99045.97;5114917;28;20340;-79
2022/05/04 01:34:08;;;;;;;11.03;8.57;;;;;;;12.60;100.00;99054.88;5111946;28;20254;-80
2022/05/04 01:36:42;;;;;;;12.70;9.00;;;;;;;12.59;100.00;99057.66;5110999;28;20619;-79
2022/05/04 01:39:13;;;;;;;13.90;9.30;;;;;;;12.79;100.00;99053.50;5078025;28;20221;-80
2022/05/04 01:44:29;;;;;;;11.60;8.90;;;;;;;12.99;100.00;99047.53;5114859;28;20202;-80
2022/05/04 01:46:59;;;;;;;14.10;9.17;;;;;;;13.07;100.00;99052.28;5110831;28;20197;-80
2022/05/04 01:49:28;;;;;;;10.63;8.60;;;;;;;12.91;100.00;99039.28;5108913;28;20277;-80
2022/05/04 01:52:05;;;;;;;10.93;8.33;;;;;;;13.09;100.00;99037.06;5109831;28;20205;-80
2022/05/04 01:54:39;;;;;;;12.67;8.37;;;;;;;12.73;100.00;99043.31;5103382;28;20215;-80
2022/05/04 01:57:09;;;;;;;13.13;8.73;;;;;;;12.96;100.00;99046.94;5106856;28;20199;-80
2022/05/04 01:59:37;;;;;;;10.93;8.40;;;;;;;12.87;100.00;99043.16;5105499;28;20203;-79
2022/05/04 02:02:10;;;;;;;11.47;8.60;;;;;;;12.68;100.00;99043.69;5112676;28;20195;-80
2022/05/04 02:04:40;;;;;;;12.73;9.40;;;;;;;12.57;100.00;99047.13;5095665;28;20223;-80
2022/05/04 02:07:10;;;;;;;13.93;8.77;;;;;;;12.41;100.00;99046.56;5112745;28;20227;-80
2022/05/04 02:09:43;;;;;;;10.73;8.73;;;;;;;12.36;100.00;99048.72;5109014;28;20206;-79
2022/05/04 02:12:12;;;;;;;10.87;9.33;;;;;;;12.61;100.00;99042.44;5105741;28;20206;-80
2022/05/04 02:14:41;;;;;;;13.97;9.30;;;;;;;12.63;100.00;99042.31;5113964;28;20221;-80
2022/05/04 02:17:17;;;;;;;11.57;9.20;;;;;;;12.68;100.00;99043.69;5111732;28;20191;-79
2022/05/04 02:19:47;;;;;;;11.30;8.40;;;;;;;12.53;100.00;99039.50;5113471;28;20197;-80
2022/05/04 02:22:18;;;;;;;13.67;8.83;;;;;;;12.55;100.00;99043.75;5106212;28;20237;-79
2022/05/04 02:24:53;;;;;;;14.40;9.57;;;;;;;12.65;100.00;99038.59;5127831;27;20198;-80
2022/05/04 02:27:26;;;;;;;16.23;9.10;;;;;;;12.50;100.00;99050.34;5130039;27;20186;-79
2022/05/04 02:29:58;;;;;;;13.60;8.80;;;;;;;12.41;100.00;99048.38;5097951;28;20197;-80
2022/05/04 02:32:27;;;;;;;13.20;8.60;;;;;;;12.40;100.00;99044.88;5063157;28;20269;-79
2022/05/04 02:37:58;;;;;;;12.83;9.47;;;;;;;12.41;100.00;99038.59;5130841;27;20641;-80
2022/05/04 02:40:28;;;;;;;11.73;8.07;;;;;;;12.50;100.00;99043.22;5126204;27;20190;-80
2022/05/04 02:42:57;;;;;;;11.87;8.73;;;;;;;12.38;100.00;99043.28;5102749;28;20199;-80
2022/05/04 02:45:25;;;;;;;12.27;8.87;;;;;;;12.38;100.00;99035.31;5109415;28;20274;-79
2022/05/04 02:47:55;;;;;;;12.30;9.70;;;;;;;12.43;100.00;99038.47;5109669;28;20633;-79
2022/05/04 02:50:25;;;;;;;14.43;9.63;;;;;;;12.32;100.00;99036.59;5110532;28;20669;-80
2022/05/04 02:52:53;;;;;;;15.83;9.57;;;;;;;12.35;100.00;99044.34;5109292;28;20202;-79
2022/05/04 02:55:23;;;;;;;13.70;8.80;;;;;;;12.22;100.00;99038.25;5112717;28;20274;-80
2022/05/04 02:57:57;;;;;;;13.37;9.13;;;;;;;12.01;100.00;99043.31;5107080;28;20654;-81
2022/05/04 03:00:26;;;;;;;12.63;9.00;;;;;;;12.09;100.00;99042.75;5110671;28;20201;-80
2022/05/04 03:02:55;;;;;;;11.47;8.83;;;;;;;12.37;100.00;99033.63;5105989;28;20199;-80
2022/05/04 03:05:24;;;;;;;13.93;9.00;;;;;;;12.50;100.00;99039.72;5108735;28;20195;-80
2022/05/04 03:07:53;;;;;;;11.23;8.70;;;;;;;12.45;100.00;99029.47;5108006;28;20187;-80
2022/05/04 03:10:22;;;;;;;12.73;8.53;;;;;;;12.15;100.00;99029.03;5110684;28;20195;-80
2022/05/04 03:12:51;;;;;;;13.33;9.73;;;;;;;12.24;100.00;99029.19;5113619;28;20199;-80
2022/05/04 03:15:24;;;;;;;12.50;8.97;;;;;;;12.35;100.00;99027.56;5108734;28;20701;-80
2022/05/04 03:17:53;;;;;;;13.73;9.30;;;;;;;12.36;100.00;99029.28;5105914;28;20188;-80
2022/05/04 03:20:23;;;;;;;14.93;9.40;;;;;;;12.22;100.00;99030.28;5111497;28;20630;-80
2022/05/04 03:22:52;;;;;;;12.53;9.40;;;;;;;12.24;100.00;99031.00;5103946;28;20199;-80
2022/05/04 03:25:20;;;;;;;16.17;10.03;;;;;;;12.20;100.00;99030.41;5111042;28;20282;-80
2022/05/04 03:27:51;;;;;;;10.63;8.63;;;;;;;11.94;100.00;99028.75;5113849;28;20195;-80
2022/05/04 03:30:21;;;;;;;14.37;9.70;;;;;;;11.88;100.00;99029.22;5109830;28;20191;-79
2022/05/04 03:33:02;;;;;;;14.77;9.57;;;;;;;12.01;100.00;99032.69;5119572;27;20219;-80
2022/05/04 03:35:38;;;;;;;14.67;9.80;;;;;;;12.03;100.00;99042.22;5116181;28;20217;-80
2022/05/04 03:38:09;;;;;;;12.83;9.53;;;;;;;11.94;100.00;99026.09;5111483;28;20193;-80
2022/05/04 03:40:40;;;;;;;12.70;9.50;;;;;;;12.02;100.00;99031.72;5117180;28;20209;-80
2022/05/04 03:43:15;;;;;;;12.37;8.73;;;;;;;12.04;100.00;99029.78;5110084;28;20195;-80
2022/05/04 03:45:43;;;;;;;14.73;9.50;;;;;;;11.90;100.00;99030.81;5114873;27;20195;-80
2022/05/04 03:48:14;;;;;;;13.30;9.13;;;;;;;11.93;100.00;99025.25;5109172;28;20198;-80
2022/05/04 03:50:45;;;;;;;12.63;8.73;;;;;;;11.70;100.00;99021.56;5115758;28;20195;-79
2022/05/04 03:53:14;;;;;;;14.10;9.60;;;;;;;11.85;100.00;99024.97;5113933;28;20205;-80
2022/05/04 03:55:43;;;;;;;10.77;8.93;;;;;;;11.97;100.00;99033.88;5115951;27;20242;-80
2022/05/04 03:58:13;;;;;;;13.40;9.83;;;;;;;11.87;100.00;99032.81;5071522;28;20296;-80
2022/05/04 04:00:42;;;;;;;12.13;9.30;;;;;;;12.02;100.00;99029.06;4914336;29;20210;-80
2022/05/04 04:03:10;;;;;;;13.00;9.80;;;;;;;11.90;100.00;99030.81;4916372;29;20210;-80
2022/05/04 04:05:43;;;;;;;15.70;9.33;;;;;;;11.76;100.00;99029.06;4913014;29;20217;-80
2022/05/04 04:08:14;;;;;;;12.63;9.57;;;;;;;11.88;100.00;99030.06;4912710;29;20202;-80
2022/05/04 04:10:42;;;;;;;14.30;9.23;;;;;;;11.74;100.00;99028.34;4914884;29;20281;-80
2022/05/04 04:13:12;;;;;;;13.83;8.90;;;;;;;11.88;100.00;99031.88;4911881;29;20205;-80
2022/05/04 04:15:42;;;;;;;12.50;9.00;;;;;;;11.71;100.00;99033.88;4913620;29;20301;-80
2022/05/04 04:18:11;;;;;;;11.97;8.87;;;;;;;11.72;100.00;99042.69;4930315;28;20199;-80
2022/05/04 04:23:28;;;;;;;14.83;9.23;;;;;;;11.82;100.00;99041.09;4993923;28;20226;-80
2022/05/04 04:25:58;;;;;;;11.20;8.83;;;;;;;11.79;100.00;99046.63;4897464;29;20218;-80
2022/05/04 04:28:28;;;;;;;15.07;8.53;;;;;;;11.57;100.00;99046.41;4905473;29;20233;-79
2022/05/04 04:30:57;;;;;;;13.33;9.10;;;;;;;11.55;100.00;99045.66;4953536;29;20192;-79
2022/05/04 04:33:27;;;;;;;15.13;8.50;;;;;;;11.63;100.00;99043.31;4952064;29;20676;-80
2022/05/04 04:35:56;;;;;;;15.37;9.23;;;;;;;11.72;100.00;99043.53;4953275;28;20299;-79
2022/05/04 04:38:27;;;;;;;13.23;9.50;;;;;;;11.61;100.00;99046.09;4993390;28;20198;-79
2022/05/04 04:40:56;;;;;;;12.80;8.87;;;;;;;11.85;100.00;99048.84;5024994;28;20212;-80
2022/05/04 04:43:26;;;;;;;14.33;9.47;;;;;;;11.72;100.00;99042.69;5039509;28;20188;-80
2022/05/04 04:45:55;;;;;;;12.00;9.67;;;;;;;11.55;100.00;99053.63;5088271;28;20203;-80
2022/05/04 04:48:23;;;;;;;13.60;9.27;;;;;;;11.61;100.00;99062.00;5089669;28;20207;-80
2022/05/04 04:50:51;;;;;;;13.73;8.97;;;;;;;11.67;100.00;99060.72;5088537;28;20200;-80
2022/05/04 04:53:29;;;;;;;12.93;8.97;;;;;;;11.87;100.00;99065.53;5088345;28;20278;-80
2022/05/04 04:55:57;;;;;;;12.50;8.43;;;;;;;11.74;100.00;99052.22;5093607;28;20234;-80
2022/05/04 04:58:26;;;;;;;13.07;8.70;;;;;;;11.61;100.00;99053.22;5092070;28;20199;-80
2022/05/04 05:00:55;;;;;;;11.73;8.97;;;;;;;11.57;100.00;99057.84;5048708;28;20247;-80
2022/05/04 05:03:24;;;;;;;13.07;8.60;;;;;;;11.67;100.00;99050.09;5016113;28;20185;-80
2022/05/04 05:05:52;;;;;;;13.23;9.37;;;;;;;11.76;100.00;99058.25;5050875;28;20193;-80
2022/05/04 05:08:22;;;;;;;12.60;8.73;;;;;;;11.75;100.00;99061.03;5028854;28;20205;-80
2022/05/04 05:10:53;;;;;;;12.20;8.67;;;;;;;11.68;100.00;99065.94;5027662;28;20214;-79
2022/05/04 05:13:22;;;;;;;15.57;9.07;;;;;;;11.76;100.00;99058.25;5027579;28;20519;-80
2022/05/04 05:16:07;;;;;;;13.97;8.87;;;;;;;11.85;100.00;99066.56;4969689;28;20219;-80
2022/05/04 05:18:36;;;;;;;14.07;8.90;;;;;;;11.57;100.00;99057.84;4984656;28;20202;-80
2022/05/04 05:21:07;;;;;;;11.87;8.17;;;;;;;11.63;100.00;99054.78;5004665;28;20347;-80
2022/05/04 05:23:36;;;;;;;14.47;9.03;;;;;;;11.73;100.00;99060.28;4962645;28;20230;-80
2022/05/04 05:26:06;;;;;;;12.87;9.17;;;;;;;12.04;100.00;99054.53;5007630;28;20242;-80
2022/05/04 05:28:35;;;;;;;13.43;9.37;;;;;;;12.18;100.00;99058.03;4973002;28;20199;-80
2022/05/04 05:31:06;;;;;;;13.83;8.80;;;;;;;12.20;100.00;99061.41;4971010;28;20256;-79
2022/05/04 05:33:36;;;;;;;14.53;8.90;;;;;;;12.38;100.00;99062.72;4991400;28;20268;-80
2022/05/04 05:36:07;;;;;;;11.07;8.43;;;;;;;12.28;100.00;99057.25;5026165;28;20281;-80
2022/05/04 05:38:36;;;;;;;11.57;8.20;;;;;;;12.28;100.00;99067.03;4989503;28;20287;-80
2022/05/04 05:41:07;;;;;;;10.57;8.63;;;;;;;12.14;100.00;99065.34;4990144;28;20277;-80
2022/05/04 05:43:35;;;;;;;11.10;8.20;;;;;;;12.18;100.00;99068.66;4993598;28;20203;-80
2022/05/04 05:46:07;;;;;;;14.40;8.23;;;;;;;12.24;100.00;99066.38;4997040;28;20194;-80
2022/05/04 05:48:37;;;;;;;13.57;8.37;;;;;;;12.44;100.00;99069.38;5027715;28;20212;-81
2022/05/04 05:51:06;;;;;;;12.17;7.57;;;;;;;12.40;100.00;99074.09;5030531;28;20197;-80
2022/05/04 05:53:42;;;;;;;13.87;8.70;;;;;;;12.28;100.00;99077.66;5025381;28;20197;-80
2022/05/04 05:56:18;;;;;;;12.70;8.23;;;;;;;12.41;100.00;99065.16;4970773;28;20278;-80
2022/05/04 05:58:54;;;;;;;12.33;8.13;;;;;;;12.47;100.00;99066.53;4967855;28;20214;-79
2022/05/04 06:01:22;;;;;;;15.37;9.03;;;;;;;12.54;100.00;99068.59;4922681;28;20205;-80
2022/05/04 06:03:52;;;;;;;11.77;8.10;;;;;;;12.55;100.00;99070.31;5010916;28;20220;-80
2022/05/04 06:06:22;;;;;;;11.73;8.50;;;;;;;12.45;100.00;99074.63;5020909;28;20685;-80
2022/05/04 06:08:52;;;;;;;13.77;8.10;;;;;;;12.49;100.00;99080.53;5030551;28;20260;-80
2022/05/04 06:11:24;;;;;;;11.90;8.20;;;;;;;12.46;100.00;99080.78;5026347;28;20209;-80
2022/05/04 06:13:52;;;;;;;12.73;8.10;;;;;;;12.56;100.00;99087.13;5045673;28;20192;-80
2022/05/04 06:16:24;;;;;;;11.23;8.23;;;;;;;12.14;100.00;99077.78;5091571;28;20294;-80
2022/05/04 06:18:53;;;;;;;12.60;9.00;;;;;;;12.18;100.00;99079.25;5052610;28;20206;-80
2022/05/04 06:21:23;;;;;;;10.57;8.67;;;;;;;12.15;100.00;99084.78;5082052;28;20234;-80
2022/05/04 06:23:51;;;;;;;11.17;8.30;;;;;;;12.33;100.00;99092.28;5091310;28;20241;-80
2022/05/04 06:26:23;;;;;;;10.93;8.40;;;;;;;12.26;100.00;99088.38;5089697;28;20195;-80
2022/05/04 06:28:53;;;;;;;10.40;8.30;;;;;;;12.51;100.00;99090.09;5028454;28;20684;-80
2022/05/04 06:34:10;;;;;;;12.17;8.30;;;;;;;12.62;100.00;99091.97;5031185;28;20212;-80
2022/05/04 06:36:42;;;;;;;14.17;8.80;;;;;;;12.58;100.00;99094.00;5024914;28;20224;-80
2022/05/04 06:39:15;;;;;;;14.87;9.27;;;;;;;12.56;100.00;99098.59;4966279;28;20230;-80
2022/05/04 06:41:44;;;;;;;12.27;8.63;;;;;;;12.47;100.00;99103.72;4967856;28;20199;-80
2022/05/04 06:44:14;;;;;;;11.70;8.10;;;;;;;12.49;100.00;99093.81;4970024;28;20218;-80
2022/05/04 06:46:42;;;;;;;14.40;8.17;;;;;;;12.51;100.00;99092.75;4941298;28;20202;-80
2022/05/04 06:49:12;;;;;;;12.00;8.37;;;;;;;12.75;100.00;99095.44;4987364;28;20303;-80
2022/05/04 06:51:42;;;;;;;11.00;8.43;;;;;;;12.90;100.00;99088.09;4990761;28;20278;-80
2022/05/04 06:54:11;;;;;;;11.20;8.57;;;;;;;13.07;100.00;99077.06;5015763;28;20202;-80
2022/05/04 06:56:56;;;;;;;11.10;8.33;;;;;;;13.14;100.00;99088.09;5048494;28;20343;-81
2022/05/04 06:59:28;;;;;;;11.80;8.33;;;;;;;13.21;100.00;99083.16;5095140;28;20188;-80
2022/05/04 07:01:57;;;;;;;10.13;7.37;;;;;;;13.45;100.00;99091.94;5096189;28;20203;-80
2022/05/04 07:04:28;;;;;;;11.87;7.63;;;;;;;13.53;100.00;99096.69;5096546;28;20188;-81
2022/05/04 07:06:58;;;;;;;11.67;7.80;;;;;;;13.63;100.00;99095.00;5092424;28;20202;-81
2022/05/04 07:09:30;;;;;;;11.10;7.80;;;;;;;13.60;100.00;99096.06;5091166;28;20188;-81
2022/05/04 07:11:59;;;;;;;11.47;7.80;;;;;;;13.58;100.00;99090.03;5092605;28;20188;-80
2022/05/04 07:14:32;;;;;;;16.77;8.17;;;;;;;13.18;100.00;99085.06;5094201;28;20228;-80
2022/05/04 07:17:04;;;;;;;13.53;7.93;;;;;;;13.49;100.00;99082.75;5096311;28;20219;-80
2022/05/04 07:19:34;;;;;;;14.50;7.70;;;;;;;13.72;100.00;99092.47;5075869;28;20195;-80
2022/05/04 07:22:02;;;;;;;11.93;8.67;;;;;;;13.92;100.00;99082.91;5093087;28;20224;-80
2022/05/04 07:24:33;;;;;;;9.63;7.50;;;;;;;13.92;100.00;99084.75;5092239;28;20192;-80
2022/05/04 07:27:02;;;;;;;13.13;8.27;;;;;;;13.52;100.00;99087.84;5096539;28;20199;-80
2022/05/04 07:29:35;;;;;;;11.50;7.93;;;;;;;13.87;100.00;99084.25;5091468;28;20199;-80
2022/05/04 07:32:06;;;;;;;11.67;8.00;;;;;;;13.96;100.00;99087.03;5091401;28;20196;-80
2022/05/04 07:34:36;;;;;;;13.77;8.00;;;;;;;13.94;100.00;99085.47;5095166;28;20208;-79
2022/05/04 07:37:05;;;;;;;11.90;8.07;;;;;;;13.96;100.00;99095.00;5095392;28;20253;-80
2022/05/04 07:42:28;;;;;;;10.60;7.90;;;;;;;13.91;100.00;99093.69;5096429;28;20683;-80
2022/05/04 07:45:15;;;;;;;12.13;8.40;;;;;;;13.88;100.00;99089.44;5096479;27;20195;-80
2022/05/04 07:47:47;;;;;;;11.40;8.20;;;;;;;13.93;100.00;99103.25;5095203;28;20279;-80
2022/05/04 07:50:17;;;;;;;12.70;8.57;;;;;;;14.25;100.00;99105.16;5097568;27;20223;-80
2022/05/04 07:52:48;;;;;;;11.33;8.23;;;;;;;14.33;100.00;99102.75;5094998;28;20279;-80
2022/05/04 07:55:17;;;;;;;11.57;8.07;;;;;;;14.55;100.00;99110.72;5094079;28;20207;-80
2022/05/04 07:57:48;;;;;;;10.30;7.97;;;;;;;14.82;100.00;99106.78;5096313;28;20297;-80
2022/05/04 08:06:01;;;;;;;11.23;7.67;;;;;;;15.28;100.00;99097.63;5092663;28;20207;-80
2022/05/04 08:08:31;;;;;;;11.17;7.67;;;;;;;15.66;100.00;99103.25;5050618;28;20303;-80
2022/05/04 08:11:03;;;;;;;10.53;7.97;;;;;;;15.65;100.00;99098.03;5046366;28;20726;-80
2022/05/04 08:13:36;;;;;;;11.23;7.43;;;;;;;16.10;100.00;99103.88;5049121;28;20312;-80
2022/05/04 08:16:10;;;;;;;9.37;6.63;;;;;;;16.38;100.00;99094.25;4985040;28;20206;-79
2022/05/04 08:18:41;;;;;;;10.53;6.80;;;;;;;16.79;100.00;99095.06;4990555;28;20562;-80
2022/05/04 08:21:11;;;;;;;9.30;7.03;;;;;;;16.78;100.00;99096.91;4934340;29;20269;-80
2022/05/04 08:23:39;;;;;;;10.67;7.17;;;;;;;17.03;100.00;99092.00;4940809;28;20211;-81
2022/05/04 08:26:13;;;;;;;8.00;6.57;;;;;;;17.32;100.00;99092.84;4951687;28;20204;-81
2022/05/04 08:28:43;;;;;;;8.77;6.67;;;;;;;17.52;100.00;99087.44;4921112;29;20240;-80
2022/05/04 08:31:17;;;;;;;10.53;7.33;;;;;;;17.24;100.00;99090.03;4919352;29;20196;-81
2022/05/04 08:33:47;;;;;;;13.37;8.30;;;;;;;17.24;100.00;99082.00;4961320;28;20199;-80
2022/05/04 08:36:16;;;;;;;10.60;7.70;;;;;;;17.05;100.00;99087.34;4939516;28;20199;-81
2022/05/04 08:38:44;;;;;;;12.00;8.10;;;;;;;17.00;100.00;99089.63;5006720;28;20187;-80
2022/05/04 08:41:13;;;;;;;11.23;8.20;;;;;;;16.92;100.00;99086.78;5070176;28;20663;-81
2022/05/04 08:43:43;;;;;;;13.50;8.10;;;;;;;16.81;100.00;99093.97;5072567;28;20204;-80
2022/05/04 08:46:15;;;;;;;12.70;8.43;;;;;;;16.79;100.00;99097.75;5072345;28;20197;-81
2022/05/04 08:48:45;;;;;;;10.70;7.90;;;;;;;16.89;100.00;99093.28;5069719;28;20193;-80
2022/05/04 08:51:14;;;;;;;11.43;8.20;;;;;;;16.79;100.00;99090.59;5056703;28;20205;-81
2022/05/04 08:53:44;;;;;;;10.97;8.13;;;;;;;16.60;100.00;99099.41;5087041;28;20681;-80
2022/05/04 08:56:14;;;;;;;12.83;8.00;;;;;;;16.67;100.00;99090.81;5089112;28;20276;-81
2022/05/04 08:58:42;;;;;;;11.07;7.70;;;;;;;16.96;100.00;99086.38;5089636;28;20200;-81
2022/05/04 09:01:14;;;;;;;11.00;7.70;;;;;;;17.14;100.00;99092.69;5087798;28;20203;-81
2022/05/04 09:03:43;;;;;;;9.60;7.00;;;;;;;17.11;100.00;99087.66;5084704;28;20275;-80
2022/05/04 09:06:24;;;;;;;10.20;6.93;;;;;;;17.34;100.00;99081.97;5086404;28;20199;-81
2022/05/04 09:08:57;;;;;;;11.87;7.83;;;;;;;17.53;100.00;99083.78;5087349;28;20200;-81
2022/05/04 09:11:26;;;;;;;11.03;7.03;;;;;;;17.62;100.00;99080.25;5092203;28;20215;-80
2022/05/04 09:13:55;;;;;;;10.43;7.77;;;;;;;17.34;100.00;99073.94;5087823;28;20227;-81
2022/05/04 09:16:31;;;;;;;11.43;7.83;;;;;;;18.14;100.00;99069.91;5090080;28;20204;-81
2022/05/04 09:19:06;;;;;;;10.60;7.83;;;;;;;17.94;100.00;99061.97;5094169;28;20260;-81
2022/05/04 09:21:39;;;;;;;10.30;7.67;;;;;;;17.88;100.00;99065.25;5089164;28;20262;-80
2022/05/04 09:24:13;;;;;;;12.83;7.67;;;;;;;18.00;100.00;99061.38;5089786;28;20200;-80
2022/05/04 09:26:46;;;;;;;11.30;7.67;;;;;;;18.40;100.00;99067.41;5069383;28;20215;-80
2022/05/04 09:29:15;;;;;;;9.37;7.30;;;;;;;18.75;100.00;99066.66;5069428;28;20205;-81
2022/05/04 09:31:49;;;;;;;9.47;7.27;;;;;;;19.10;100.00;99073.84;5067347;28;20651;-81
2022/05/04 09:34:17;;;;;;;12.30;8.17;;;;;;;19.01;100.00;99062.22;5068791;28;20219;-81
2022/05/04 09:45:09;;;;;;;10.73;7.40;;;;;;;18.83;100.00;99061.38;4996171;28;20230;-82
2022/05/04 09:47:40;;;;;;;10.90;8.10;;;;;;;18.38;100.00;99054.13;5011910;28;20237;-81
2022/05/04 09:50:10;;;;;;;9.43;7.77;;;;;;;18.46;100.00;99064.13;5004541;28;20286;-82
2022/05/04 09:52:42;;;;;;;9.37;7.93;;;;;;;18.72;100.00;99067.81;4967900;28;20215;-82
2022/05/04 09:55:16;;;;;;;8.43;7.60;;;;;;;18.92;100.00;99070.34;4968520;28;20207;-82
2022/05/04 09:57:50;;;;;;;11.30;7.80;;;;;;;19.08;100.00;99065.09;4981086;28;20744;-82
2022/05/04 10:00:21;;;;;;;10.73;7.67;;;;;;;19.34;100.00;99062.47;4953288;28;20671;-82
2022/05/04 10:02:54;;;;;;;9.93;8.00;;;;;;;19.59;100.00;99047.38;4952295;28;20223;-82
2022/05/04 10:05:27;;;;;;;8.97;7.50;;;;;;;19.66;100.00;99048.44;4953542;29;20302;-82
2022/05/04 10:07:56;;;;;;;10.57;7.57;;;;;;;19.77;100.00;99039.25;4947379;28;20200;-82
2022/05/04 10:10:25;;;;;;;11.83;7.57;;;;;;;19.96;100.00;99039.03;4962835;28;20210;-81
2022/05/04 10:12:54;;;;;;;10.20;7.77;;;;;;;20.06;100.00;99038.91;4983299;28;20203;-81
2022/05/04 10:15:26;;;;;;;12.43;8.27;;;;;;;20.20;100.00;99041.84;4985970;28;20217;-81
2022/05/04 10:18:03;;;;;;;10.63;7.60;;;;;;;20.43;100.00;99047.47;4989483;28;20222;-82
2022/05/04 10:20:37;;;;;;;12.07;8.10;;;;;;;19.73;100.00;99041.44;4987869;28;20187;-82
2022/05/04 10:23:11;;;;;;;12.80;7.77;;;;;;;20.75;100.00;99040.47;4987855;28;20195;-81
2022/05/04 10:25:42;;;;;;;14.30;8.50;;;;;;;20.75;100.00;99027.00;5017219;28;20197;-82
2022/05/04 10:28:13;;;;;;;9.47;8.23;;;;;;;20.83;100.00;99029.72;5026668;28;20205;-81
2022/05/04 10:30:47;;;;;;;13.03;8.90;;;;;;;21.10;100.00;99033.94;5025005;28;20272;-81
2022/05/04 10:33:19;;;;;;;11.80;8.57;;;;;;;20.89;100.00;99034.44;5030320;28;20197;-81
2022/05/04 10:35:49;;;;;;;12.50;8.37;;;;;;;20.94;100.00;99037.50;5037335;28;20204;-83
2022/05/04 10:38:21;;;;;;;9.37;8.43;;;;;;;20.59;100.00;99035.94;5049890;28;20221;-82
2022/05/04 10:40:56;;;;;;;13.13;8.27;;;;;;;21.03;99.21;99031.06;5008937;28;20209;-82
2022/05/04 10:43:36;;;;;;;9.53;8.50;;;;;;;20.98;96.66;99022.69;4976664;28;20202;-83
2022/05/04 10:46:09;;;;;;;10.40;8.77;;;;;;;20.99;97.05;99023.50;4986178;28;20206;-82
2022/05/04 10:48:43;;;;;;;11.70;8.57;;;;;;;21.27;94.23;99026.75;4988215;28;20203;-82
2022/05/04 10:51:18;;;;;;;9.23;7.83;;;;;;;21.46;89.45;99026.38;4986637;28;20198;-83
2022/05/04 10:53:49;;;;;;;9.93;8.03;;;;;;;21.68;93.55;99012.19;4991875;28;20283;-81
2022/05/04 10:56:19;;;;;;;8.73;7.83;;;;;;;21.58;92.54;99021.47;4989057;28;20702;-81
2022/05/04 10:58:56;;;;;;;12.43;8.37;;;;;;;21.83;90.11;99016.88;4983668;28;20302;-82
2022/05/04 11:01:27;;;;;;;8.60;7.70;;;;;;;21.58;94.38;99011.53;5006979;28;20664;-81
2022/05/04 11:04:05;;;;;;;9.03;7.30;;;;;;;21.86;88.57;99009.25;5044653;28;20200;-82
2022/05/04 11:06:42;;;;;;;10.43;7.47;;;;;;;21.95;86.65;99013.63;5089228;28;20192;-82
2022/05/04 11:09:13;;;;;;;9.63;7.27;;;;;;;22.19;88.80;99012.69;5090852;28;20196;-81
2022/05/04 11:11:43;;;;;;;9.77;7.57;;;;;;;21.96;83.37;99006.34;5084638;28;20206;-81
2022/05/04 11:14:16;;;;;;;9.13;7.47;;;;;;;21.97;86.30;99005.34;5068866;28;20219;-81
2022/05/04 11:16:46;;;;;;;8.50;6.73;;;;;;;22.02;84.11;99010.22;5108284;28;20201;-81
2022/05/04 11:19:24;;;;;;;9.33;6.90;;;;;;;21.70;85.57;99001.22;5029543;28;20213;-81
2022/05/04 11:21:52;;;;;;;9.07;6.90;;;;;;;22.17;92.49;98998.53;5029713;28;20280;-81
2022/05/04 11:24:25;;;;;;;8.50;6.82;;;;;;;22.06;88.36;98995.34;5023460;28;20285;-81
2022/05/04 11:26:58;;;;;;;10.23;7.27;;;;;;;20.78;92.77;98991.72;5024711;28;20201;-82
2022/05/04 11:29:33;;;;;;;10.00;6.97;;;;;;;21.77;90.81;98996.81;5029097;28;20236;-81
2022/05/04 11:32:06;;;;;;;10.33;7.07;;;;;;;21.71;89.82;98997.50;5010881;28;20263;-82
2022/05/04 11:34:38;;;;;;;11.90;7.17;;;;;;;21.95;87.21;98999.28;4960980;28;20220;-82
2022/05/04 11:37:12;;;;;;;7.90;7.10;;;;;;;22.12;86.37;98982.06;4932672;29;20192;-82
2022/05/04 11:39:42;;;;;;;8.93;7.03;;;;;;;22.23;93.14;98987.03;4945263;28;20307;-81
2022/05/04 11:42:13;;;;;;;8.80;6.87;;;;;;;22.27;85.28;98988.34;4949840;28;20204;-81
2022/05/04 11:44:47;;;;;;;9.65;6.40;;;;;;;22.21;86.85;98988.25;5007752;28;20194;-81
2022/05/04 11:47:18;;;;;;;9.27;7.23;;;;;;;22.26;80.44;98991.25;5031047;28;20209;-81
2022/05/04 11:49:48;;;;;;;8.33;6.57;;;;;;;22.64;84.14;98985.94;5025878;28;20206;-82
2022/05/04 11:52:18;;;;;;;8.98;6.15;;;;;;;22.54;79.58;98992.44;5048409;28;20187;-81
2022/05/04 11:54:47;;;;;;;7.80;6.60;;;;;;;22.55;77.49;98993.25;5092914;28;20218;-81
2022/05/04 11:57:19;;;;;;;10.07;6.53;;;;;;;22.47;78.72;98986.06;5095825;28;20203;-82
2022/05/04 11:59:57;;;;;;;7.83;6.63;;;;;;;22.63;69.42;98990.50;5093114;28;20237;-81
2022/05/04 12:02:26;;;;;;;8.35;6.13;;;;;;;22.97;72.13;98983.84;5094229;28;20203;-82
2022/05/04 12:05:01;;;;;;;8.65;6.57;;;;;;;22.65;79.41;98982.22;5092028;28;20200;-81
2022/05/04 12:07:33;;;;;;;8.43;7.03;;;;;;;22.83;77.89;98980.06;5110876;28;20194;-82